Flight Track Log - Related Links

Times and Time Zones

All times are in EDT time to prevent confusion due to time zone crossing. See the SWA2122 flight status page for this flight to view local times or setup timezone preferences in your user account.

Time Position Orientation Groundspeed Altitude Reporting Facility
EDT Latitude Longitude Course Direction KTS MPH feet Rate Location/Type
Sat 08:51:54 AM 39.1833 -76.7667 211° Southwest 214 246 3,000  Level Potomac TRACON
Sat 08:52:48 AM 39.2000 -76.8500 284° West 251 289 5,500 3,263 Climbing Potomac TRACON
Sat 08:53:48 AM 39.2000 -76.9333 270° West 263 303 9,200 2,800 Climbing Potomac TRACON
Sat 08:54:48 AM 39.2000 -77.0333 270° West 281 323 11,100 2,139 Climbing Potomac TRACON
Sat 08:55:43 AM 39.2000 -77.1333 270° West 330 380 13,300 2,300 Climbing Potomac TRACON
Sat 08:57:00 AM 39.0521 -77.2687 211° Southwest  Level FlightAware Approximate
Sat 08:57:48 AM 39.0903 -77.3514 237° Southwest 352 405 18,000  Level Washington Center
Sat 08:58:48 AM 39.0572 -77.4733 251° West 357 411 20,000 2,100 Climbing Washington Center
Sat 08:59:48 AM 39.0236 -77.6036 252° West 380 437 22,200 1,850 Climbing Washington Center
Sat 09:00:48 AM 38.9906 -77.7200 250° West 390 449 23,700 1,650 Climbing Washington Center
Sat 09:01:48 AM 38.9503 -77.8658 250° West 390 449 25,500 1,600 Climbing Washington Center
Sat 09:02:48 AM 38.9144 -77.9900 250° West 405 466 26,900 1,700 Climbing Washington Center
Sat 09:03:48 AM 38.8764 -78.1247 250° West 405 466 28,900 1,700 Climbing Washington Center
Sat 09:04:48 AM 38.8483 -78.2625 255° West 405 466 30,300 1,300 Climbing Washington Center
Sat 09:05:48 AM 38.8494 -78.3983 271° West 384 442 31,500 1,500 Climbing Washington Center
Sat 09:06:48 AM 38.8481 -78.5369 269° West 391 450 33,300 1,550 Climbing Washington Center
Sat 09:07:48 AM 38.8469 -78.6675 269° West 385 443 34,600 1,100 Climbing Washington Center
Sat 09:08:48 AM 38.8436 -78.8008 268° West 380 437 35,500 700 Climbing Washington Center
Sat 09:09:48 AM 38.8419 -78.9339 269° West 380 437 36,000 250 Climbing Washington Center
Sat 09:10:48 AM 38.8381 -79.0669 268° West 380 437 36,000  Level Washington Center
Sat 09:11:48 AM 38.8342 -79.2000 268° West 380 437 36,000  Level Washington Center
Sat 09:12:48 AM 38.8111 -79.3403 258° West 391 450 36,000  Level Washington Center
Sat 09:13:48 AM 38.7883 -79.4694 257° West 391 450 36,000  Level Washington Center
Sat 09:14:48 AM 38.7667 -79.6203 260° West 391 450 36,000  Level Washington Center
Sat 09:15:48 AM 38.7433 -79.7547 257° West 391 450 36,000  Level Washington Center
Sat 09:17:51 AM 38.6889 -80.0261 256° West 387 445 36,000  Level Indianapolis Center
Sat 09:18:53 AM 38.6644 -80.1603 257° West 386 444 36,000  Level Indianapolis Center
Sat 09:19:55 AM 38.6389 -80.2931 256° West 384 442 36,000  Level Indianapolis Center
Sat 09:20:56 AM 38.6133 -80.4272 256° West 386 444 36,000  Level Indianapolis Center
Sat 09:21:58 AM 38.5881 -80.5608 256° West 386 444 36,000  Level Indianapolis Center
Sat 09:23:00 AM 38.5622 -80.6950 256° West 387 445 36,000  Level Indianapolis Center
Sat 09:24:01 AM 38.5364 -80.8297 256° West 390 449 36,000  Level Indianapolis Center
Sat 09:25:03 AM 38.5108 -80.9628 256° West 386 444 36,000  Level Indianapolis Center
Sat 09:26:04 AM 38.4839 -81.0975 256° West 388 447 36,000  Level Indianapolis Center
Sat 09:27:06 AM 38.4575 -81.2328 256° West 389 448 36,000  Level Indianapolis Center
Sat 09:28:08 AM 38.4306 -81.3697 256° West 392 451 36,000  Level Indianapolis Center
Sat 09:29:09 AM 38.3981 -81.5303 256° West 388 447 36,000  Level Indianapolis Center
Sat 09:30:11 AM 38.3722 -81.6644 256° West 386 444 36,000  Level Indianapolis Center
Sat 09:31:13 AM 38.3439 -81.7967 255° West 384 442 36,000  Level Indianapolis Center
Sat 09:32:14 AM 38.3067 -81.9253 250° West 385 443 36,000  Level Indianapolis Center
Sat 09:33:16 AM 38.2694 -82.0544 250° West 387 445 36,000  Level Indianapolis Center
Sat 09:34:18 AM 38.2333 -82.1839 250° West 387 445 36,000  Level Indianapolis Center
Sat 09:35:19 AM 38.1978 -82.3122 251° West 385 443 36,000  Level Indianapolis Center
Sat 09:36:21 AM 38.1611 -82.4414 250° West 387 445 36,000  Level Indianapolis Center
Sat 09:37:23 AM 38.1181 -82.5908 250° West 383 441 36,000  Level Indianapolis Center
Sat 09:38:24 AM 38.0814 -82.7164 250° West 381 438 36,000  Level Indianapolis Center
Sat 09:39:26 AM 38.0436 -82.8458 250° West 388 447 36,000  Level Indianapolis Center
Sat 09:40:28 AM 38.0064 -82.9733 250° West 386 444 36,000  Level Indianapolis Center
Sat 09:41:30 AM 37.9697 -83.1014 250° West 387 445 36,000  Level Indianapolis Center
Sat 09:42:31 AM 37.9492 -83.2347 259° West 385 443 36,000 -244 Level Indianapolis Center
Sat 09:43:33 AM 37.9292 -83.3889 261° West 382 440 35,500 -726 Descending Indianapolis Center
Sat 09:44:35 AM 37.9128 -83.5233 261° West 385 443 34,500 -919 Descending Indianapolis Center
Sat 09:45:37 AM 37.8972 -83.6567 262° West 384 442 33,600 -927 Descending Indianapolis Center
Sat 09:46:38 AM 37.8653 -83.7847 252° West 388 447 32,600 -780 Descending Indianapolis Center
Sat 09:47:40 AM 37.7922 -83.8906 229° Southwest 394 453 32,000 -290 Descending Indianapolis Center
Sat 09:48:42 AM 37.7203 -83.9983 230° Southwest 400 460 32,000  Level Indianapolis Center
Sat 09:49:44 AM 37.6353 -84.1250 230° Southwest 403 464 32,000  Level Indianapolis Center
Sat 09:50:45 AM 37.5625 -84.2325 230° Southwest 402 463 32,000  Level Indianapolis Center
Sat 09:51:47 AM 37.4886 -84.3408 229° Southwest 405 466 32,000  Level Indianapolis Center
Sat 09:52:49 AM 37.4142 -84.4483 229° Southwest 407 468 32,000  Level Indianapolis Center
Sat 09:53:51 AM 37.3392 -84.5586 229° Southwest 414 476 32,000 -341 Level Indianapolis Center
Sat 09:54:52 AM 37.2653 -84.6650 229° Southwest 407 468 31,300 -927 Descending Indianapolis Center
Sat 09:55:54 AM 37.1775 -84.7908 229° Southwest 410 472 30,100 -1,016 Descending Indianapolis Center
Sat 09:56:56 AM 37.1047 -84.8989 230° Southwest 408 470 29,200 -919 Descending Indianapolis Center
Sat 09:57:58 AM 37.0314 -85.0036 229° Southwest 405 466 28,200 -919 Descending Indianapolis Center
Sat 09:59:00 AM 36.9569 -85.1089 229° Southwest 405 466 27,300 -927 Descending Indianapolis Center
Sat 10:00:01 AM 36.8839 -85.2142 229° Southwest 404 465 26,300 -1,220 Descending Indianapolis Center
Sat 10:01:03 AM 36.8103 -85.3178 228° Southwest 401 461 24,800 -1,774 Descending Indianapolis Center
Sat 10:01:56 AM 36.7378 -85.4222 229° Southwest 404 465 22,900 -1,381 Descending Memphis Center
Sat 10:02:56 AM 36.6919 -85.5311 242° Southwest 369 425 22,200 -450 Descending Memphis Center
Sat 10:03:56 AM 36.6397 -85.6325 237° Southwest 358 412 22,000 -400 Descending Memphis Center
Sat 10:04:56 AM 36.5875 -85.7414 239° Southwest 358 412 21,400 -1,600 Descending Memphis Center
Sat 10:05:56 AM 36.5414 -85.8475 242° Southwest 358 412 18,800 -2,300 Descending Memphis Center
Sat 10:06:56 AM 36.4931 -85.9483 239° Southwest 353 406 16,800 -1,950 Descending Memphis Center
Sat 10:07:56 AM 36.4503 -86.0383 239° Southwest 347 399 14,900 -2,000 Descending Memphis Center
Sat 10:08:56 AM 36.4017 -86.1389 239° Southwest 347 399 12,800 -2,100 Descending Memphis Center
Sat 10:09:56 AM 36.3547 -86.2342 239° Southwest 342 394 10,700 -1,400 Descending Memphis Center
Sat 10:10:56 AM 36.3117 -86.3211 238° Southwest 318 366 10,000 -1,100 Descending Memphis Center
Sat 10:11:56 AM 36.2728 -86.4031 240° Southwest 291 335 8,500 -1,500 Descending Memphis Center
Sat 10:12:56 AM 36.2297 -86.4925 239° Southwest 286 329 7,000 -1,240 Descending Memphis Center
Sat 10:13:57 AM 36.1728 -86.5389 213° Southwest 251 289 6,000 -900 Descending Memphis Center
Sat 10:14:56 AM 36.1108 -86.5622 197° South 245 282 5,200 -908 Descending Memphis Center
Sat 10:15:56 AM 36.0531 -86.5831 196° South 225 259 4,200 -1,150 Descending Memphis Center
Sat 10:16:56 AM 36.0042 -86.6161 209° Southwest 214 246 2,900 -850 Descending Memphis Center
Sat 10:17:56 AM 36.0267 -86.6742 296° West 143 165 2,500 -600 Descending Memphis Center
Sat 10:18:56 AM 36.0686 -86.6850 348° North 120 138 1,700 -900 Descending Memphis Center
Sat 10:19:56 AM 36.1100 -86.6678 19° North 120 138 700 -1,000 Descending Memphis Center
Sat 10:22:46 AM 36.1167 -86.6667 287° West  Level FlightAware Approximate
Sat 10:29:00 AM 36.1245 -86.6782 287° West  Level Estimated
Sat 10:30:00 AM 36.1245 -86.6782 287° West  Level Estimated
Sat 10:31:00 AM 36.1245 -86.6782 287° West  Level Estimated
Sat 10:32:00 AM 36.1245 -86.6782 287° West  Level Estimated
Sat 10:33:00 AM 36.1245 -86.6782 287° West  Level Estimated
Sat 10:34:00 AM 36.1245 -86.6782 287° West  Level Estimated

Login

Don't have an account? Register now (free) for customized features, flight alerts, and more!